Aviation Digital Data Service (ADDS)

Output produced by METARs form (1539 UTC 19 January 2019)
found at http://www.aviationweather.gov/metar/data/
 
Forecast for: OIBK (KISH ISLAND , IR)
Text: TAF OIBK 191130Z 1912/2018 31020KT 6000 NSC
Forecast period: 1200 UTC 19 January 2019 to 1800 UTC 20 January 2019
Forecast type: FROM: standard forecast or significant change
Winds: from the NW (310 degrees) at 23 MPH (20 knots; 10.3 m/s)
Visibility: 4 miles (6 km)
Ceiling: unknown
Clouds: missing
Weather: no significant weather forecast for this period
Text: TEMPO 1912/1918 31020G30KT 3000 SA
Forecast period: 1200 to 1800 UTC 19 January 2019
Forecast type: TEMPORARY: The following changes expected for less than half the time period
Winds: from the NW (310 degrees) at 23 MPH (20 knots; 10.3 m/s)
gusting to 34 MPH (30 knots; 15.4 m/s)
Visibility: 1.86 miles (2.99 km)
Ceiling: unknown
Clouds: missing
Weather: SA  (sand)
Text: TEMPO 2012/2015 31026KT
Forecast period: 1200 to 1500 UTC 20 January 2019
Forecast type: TEMPORARY: The following changes expected for less than half the time period
Winds: from the NW (310 degrees) at 30 MPH (26 knots; 13.4 m/s)
Visibility: missing
Ceiling: unknown
Clouds: missing
Weather: no significant weather forecast for this period